Time;durP1;ratioP1;P1;durP2;ratioP2;P2;SDS_P1;SDS_P2;PMS_P1;PMS_P2;Temp;Humidity;BMP_temperature;BMP_pressure;BME280_temperature;BME280_humidity;BME280_pressure;Samples;Min_cycle;Max_cycle;Signal;HPM_P1;HPM_P2
2022/08/28 00:02:16;;;;;;;0.60;0.52;;;16.00;67.80;;;;;;6275463;22;20016;-74
2022/08/28 00:04:41;;;;;;;1.10;0.60;;;16.00;67.30;;;;;;6245961;22;20008;-74
2022/08/28 00:07:07;;;;;;;2.28;0.55;;;15.90;67.40;;;;;;6247792;22;20006;-74
2022/08/28 00:09:33;;;;;;;0.60;0.60;;;16.00;67.50;;;;;;6248420;22;20416;-74
2022/08/28 00:12:01;;;;;;;0.98;0.60;;;15.80;67.50;;;;;;6248386;22;20007;-74
2022/08/28 00:14:26;;;;;;;1.27;0.70;;;15.80;67.50;;;;;;6247662;22;20423;-74
2022/08/28 00:16:53;;;;;;;0.47;0.40;;;15.80;67.60;;;;;;6275305;22;20004;-73
2022/08/28 00:19:21;;;;;;;0.80;0.50;;;15.80;67.70;;;;;;6275148;22;20007;-74
2022/08/28 00:21:47;;;;;;;1.08;0.60;;;15.70;67.80;;;;;;6275479;22;20817;-73
2022/08/28 00:24:14;;;;;;;0.75;0.40;;;15.70;67.80;;;;;;6275706;22;20004;-74
2022/08/28 00:29:18;;;;;;;0.55;0.40;;;15.70;67.80;;;;;;6274838;22;20011;-74
2022/08/28 00:31:43;;;;;;;0.50;0.50;;;15.70;67.90;;;;;;6248357;22;20451;-74
2022/08/28 00:34:09;;;;;;;0.55;0.50;;;15.70;68.00;;;;;;6222365;22;20043;-74
2022/08/28 00:36:36;;;;;;;0.60;0.50;;;15.60;68.00;;;;;;6274898;22;20016;-74
2022/08/28 00:39:04;;;;;;;0.95;0.52;;;15.60;68.10;;;;;;6274554;22;20103;-74
2022/08/28 00:41:31;;;;;;;1.13;0.50;;;15.60;68.20;;;;;;6247713;22;20011;-73
2022/08/28 00:44:10;;;;;;;0.28;0.28;;;15.60;68.30;;;;;;6274772;22;20031;-74
2022/08/28 00:46:37;;;;;;;1.13;0.52;;;15.50;68.40;;;;;;6274706;22;20024;-74
2022/08/28 00:49:05;;;;;;;0.47;0.43;;;15.50;68.40;;;;;;6247772;22;20436;-74
2022/08/28 00:54:10;;;;;;;0.57;0.50;;;15.50;68.50;;;;;;6249622;22;20019;-74
2022/08/28 00:56:38;;;;;;;0.80;0.60;;;15.50;68.50;;;;;;6247878;22;20015;-74
2022/08/28 00:59:08;;;;;;;1.05;0.50;;;15.50;68.50;;;;;;6247746;22;20018;-73
2022/08/28 01:01:34;;;;;;;0.47;0.47;;;15.50;68.60;;;;;;6248783;22;20015;-74
2022/08/28 01:04:04;;;;;;;0.57;0.45;;;15.40;68.60;;;;;;6275323;22;20004;-74
2022/08/28 01:06:31;;;;;;;0.65;0.47;;;15.40;68.70;;;;;;6248890;22;20336;-73
2022/08/28 01:08:57;;;;;;;1.15;0.50;;;15.40;68.80;;;;;;6275408;22;20010;-73
2022/08/28 01:11:23;;;;;;;1.65;0.68;;;15.50;68.90;;;;;;6275143;22;20012;-73
2022/08/28 01:13:50;;;;;;;0.88;0.60;;;15.40;68.90;;;;;;6245774;22;20016;-74
2022/08/28 01:16:18;;;;;;;1.15;0.50;;;15.30;69.00;;;;;;6274745;22;20094;-74
2022/08/28 01:18:45;;;;;;;0.75;0.55;;;15.30;69.10;;;;;;6222084;22;20051;-73
2022/08/28 01:21:23;;;;;;;0.55;0.55;;;15.30;69.20;;;;;;6274439;22;20012;-73
2022/08/28 01:24:05;;;;;;;0.43;0.40;;;15.30;69.30;;;;;;6274623;22;20004;-74
2022/08/28 01:26:31;;;;;;;0.50;0.40;;;15.20;69.20;;;;;;6274719;22;20416;-74
2022/08/28 01:28:58;;;;;;;0.75;0.55;;;15.20;69.20;;;;;;6247623;22;20015;-74
2022/08/28 01:31:27;;;;;;;0.95;0.50;;;15.20;69.30;;;;;;6274360;22;20578;-74
2022/08/28 01:33:54;;;;;;;0.77;0.40;;;15.20;69.30;;;;;;6274549;22;20014;-74
2022/08/28 01:36:20;;;;;;;0.88;0.40;;;15.20;69.40;;;;;;6274700;22;20029;-74
2022/08/28 01:38:52;;;;;;;0.63;0.50;;;15.20;70.10;;;;;;6247377;22;20441;-74
2022/08/28 01:41:18;;;;;;;0.40;0.40;;;15.20;69.60;;;;;;6274258;22;20008;-73
2022/08/28 01:43:44;;;;;;;0.90;0.50;;;15.10;69.50;;;;;;6247130;22;20008;-73
2022/08/28 01:46:10;;;;;;;0.80;0.50;;;15.20;69.70;;;;;;6246172;22;20000;-74
2022/08/28 01:48:41;;;;;;;0.55;0.50;;;15.10;69.70;;;;;;6274611;22;20003;-74
2022/08/28 01:51:07;;;;;;;0.52;0.45;;;15.10;69.70;;;;;;6248831;22;20000;-74
2022/08/28 01:53:34;;;;;;;0.40;0.40;;;15.00;69.70;;;;;;6275231;22;20057;-74
2022/08/28 01:56:03;;;;;;;0.88;0.50;;;15.10;69.80;;;;;;6274576;22;20008;-74
2022/08/28 01:58:29;;;;;;;1.05;0.60;;;15.10;69.90;;;;;;6247523;22;20004;-74
2022/08/28 02:00:56;;;;;;;0.40;0.35;;;15.10;70.00;;;;;;6274275;22;20016;-74
2022/08/28 02:03:22;;;;;;;0.95;0.60;;;15.00;70.10;;;;;;6274427;22;19996;-74
2022/08/28 02:05:49;;;;;;;0.70;0.60;;;14.90;70.10;;;;;;6274683;22;20014;-73
2022/08/28 02:08:15;;;;;;;0.57;0.50;;;14.90;70.20;;;;;;6246967;22;20011;-74
2022/08/28 02:10:42;;;;;;;0.93;0.50;;;14.90;70.30;;;;;;6247151;22;20016;-74
2022/08/28 02:13:08;;;;;;;0.50;0.45;;;14.90;70.40;;;;;;6247278;22;20015;-74
2022/08/28 02:15:36;;;;;;;1.40;0.50;;;14.80;70.40;;;;;;6247115;22;20011;-74
2022/08/28 02:18:02;;;;;;;0.73;0.43;;;14.80;70.60;;;;;;6274007;22;20023;-74
2022/08/28 02:20:29;;;;;;;1.13;0.45;;;14.80;70.60;;;;;;6274220;22;20008;-74
2022/08/28 02:22:56;;;;;;;0.43;0.40;;;14.90;70.70;;;;;;6274334;22;20474;-74
2022/08/28 02:25:23;;;;;;;0.30;0.30;;;14.80;70.70;;;;;;6248184;22;20004;-74
2022/08/28 02:27:49;;;;;;;0.90;0.50;;;14.70;70.70;;;;;;6275697;22;20059;-74
2022/08/28 02:30:16;;;;;;;0.80;0.50;;;14.70;70.80;;;;;;6249265;22;20050;-73
2022/08/28 02:32:43;;;;;;;0.35;0.35;;;14.60;70.80;;;;;;6275716;22;20004;-74
2022/08/28 02:35:11;;;;;;;0.57;0.45;;;14.70;71.00;;;;;;6272356;22;20010;-74
2022/08/28 02:37:38;;;;;;;1.88;0.45;;;14.70;71.20;;;;;;6248674;22;20000;-73
2022/08/28 02:40:04;;;;;;;0.38;0.38;;;14.70;71.00;;;;;;6275178;22;20574;-74
2022/08/28 02:42:30;;;;;;;0.40;0.40;;;14.60;71.00;;;;;;6248293;22;20011;-74
2022/08/28 02:44:56;;;;;;;0.52;0.40;;;14.60;71.20;;;;;;6275369;22;20081;-74
2022/08/28 02:47:22;;;;;;;0.55;0.40;;;14.60;71.20;;;;;;6245442;22;20003;-74
2022/08/28 02:49:48;;;;;;;0.43;0.30;;;14.60;71.30;;;;;;6248394;22;20004;-73
2022/08/28 02:52:14;;;;;;;1.80;0.32;;;14.50;71.30;;;;;;6248427;22;20003;-73
2022/08/28 02:54:40;;;;;;;0.93;0.40;;;14.50;71.40;;;;;;6276052;22;20040;-73
2022/08/28 02:57:07;;;;;;;0.85;0.40;;;14.50;71.50;;;;;;6248331;22;20076;-74
2022/08/28 02:59:34;;;;;;;0.40;0.40;;;14.50;71.60;;;;;;6275277;22;20182;-74
2022/08/28 03:02:02;;;;;;;0.90;0.38;;;14.40;71.50;;;;;;6275912;22;20011;-74
2022/08/28 03:04:31;;;;;;;0.45;0.40;;;14.40;71.50;;;;;;6275205;22;20064;-74
2022/08/28 03:06:58;;;;;;;0.40;0.40;;;14.50;71.70;;;;;;6275347;22;20007;-73
2022/08/28 03:09:24;;;;;;;0.30;0.30;;;14.40;71.70;;;;;;6248230;22;20007;-73
2022/08/28 03:11:52;;;;;;;0.82;0.40;;;14.40;71.80;;;;;;6247816;22;20038;-74
2022/08/28 03:14:19;;;;;;;0.77;0.35;;;14.40;71.80;;;;;;6274993;22;20023;-74
2022/08/28 03:16:45;;;;;;;0.30;0.30;;;14.40;71.90;;;;;;6276127;22;20491;-73
2022/08/28 03:19:11;;;;;;;1.10;0.40;;;14.30;71.80;;;;;;6222664;22;20286;-73
2022/08/28 03:21:37;;;;;;;0.40;0.40;;;14.30;71.80;;;;;;6248269;22;20018;-73
2022/08/28 03:24:04;;;;;;;0.88;0.52;;;14.30;71.90;;;;;;6248158;22;20007;-74
2022/08/28 03:26:29;;;;;;;0.55;0.47;;;14.40;72.00;;;;;;6276079;22;20023;-73
2022/08/28 03:28:56;;;;;;;0.45;0.30;;;14.30;72.00;;;;;;6275496;22;20004;-74
2022/08/28 03:31:24;;;;;;;0.50;0.50;;;14.30;72.10;;;;;;6248060;22;20019;-74
2022/08/28 03:33:51;;;;;;;1.40;0.40;;;14.30;72.20;;;;;;6248337;22;20058;-74
2022/08/28 03:36:21;;;;;;;0.50;0.40;;;14.30;72.20;;;;;;6247878;22;20003;-73
2022/08/28 03:38:48;;;;;;;0.40;0.30;;;14.30;72.30;;;;;;6249136;22;20004;-74
2022/08/28 03:41:18;;;;;;;0.63;0.40;;;14.30;72.40;;;;;;6275571;22;20335;-74
2022/08/28 03:43:44;;;;;;;0.50;0.40;;;14.20;72.40;;;;;;6275541;22;20309;-74
2022/08/28 03:46:16;;;;;;;1.02;0.60;;;14.20;72.40;;;;;;6248205;22;20011;-74
2022/08/28 03:48:43;;;;;;;0.68;0.47;;;14.20;72.40;;;;;;6275033;22;20038;-74
2022/08/28 03:51:13;;;;;;;0.30;0.30;;;14.10;72.40;;;;;;6275171;22;20019;-74
2022/08/28 03:53:39;;;;;;;0.85;0.40;;;14.10;72.40;;;;;;6247856;22;20019;-74
2022/08/28 03:56:10;;;;;;;0.30;0.30;;;14.10;72.40;;;;;;6275811;22;20442;-74
2022/08/28 03:58:36;;;;;;;0.28;0.28;;;14.10;72.60;;;;;;6244688;22;20452;-74
2022/08/28 04:01:03;;;;;;;0.35;0.30;;;14.00;72.70;;;;;;6248147;22;20018;-74
2022/08/28 04:03:29;;;;;;;0.32;0.30;;;14.00;72.70;;;;;;6272047;22;20313;-74
2022/08/28 04:05:55;;;;;;;0.28;0.22;;;14.00;72.80;;;;;;6248129;22;20016;-74
2022/08/28 04:08:21;;;;;;;0.32;0.25;;;13.90;72.90;;;;;;6276033;22;20321;-74
2022/08/28 04:10:48;;;;;;;0.30;0.30;;;13.90;73.00;;;;;;6275692;22;20014;-74
2022/08/28 04:13:15;;;;;;;0.55;0.30;;;13.90;73.10;;;;;;6275767;22;20004;-73
2022/08/28 04:15:41;;;;;;;0.30;0.30;;;13.80;73.10;;;;;;6276123;22;20004;-73
2022/08/28 04:18:08;;;;;;;0.20;0.20;;;13.90;73.20;;;;;;6275262;22;20428;-74
2022/08/28 04:20:35;;;;;;;0.30;0.30;;;13.80;73.20;;;;;;6275228;22;20087;-74
2022/08/28 04:23:02;;;;;;;0.47;0.43;;;13.90;73.30;;;;;;6248050;22;20008;-73
2022/08/28 04:25:29;;;;;;;0.50;0.30;;;13.80;73.30;;;;;;6275214;22;20073;-74
2022/08/28 04:27:55;;;;;;;1.02;0.25;;;13.80;73.30;;;;;;6248653;22;20373;-73
2022/08/28 04:30:21;;;;;;;0.20;0.20;;;13.80;73.30;;;;;;6275234;22;20042;-74
2022/08/28 04:32:47;;;;;;;0.45;0.40;;;13.80;73.30;;;;;;6248958;22;20000;-74
2022/08/28 04:35:14;;;;;;;0.28;0.28;;;13.80;73.40;;;;;;6275488;22;20006;-74
2022/08/28 04:37:42;;;;;;;0.35;0.35;;;13.80;73.40;;;;;;6275071;22;20003;-74
2022/08/28 04:40:09;;;;;;;0.45;0.45;;;13.80;73.40;;;;;;6275109;22;20008;-73
2022/08/28 04:42:36;;;;;;;1.85;0.60;;;13.80;73.40;;;;;;6275272;22;20008;-74
2022/08/28 04:45:02;;;;;;;0.40;0.40;;;13.70;73.40;;;;;;6248816;22;20379;-74
2022/08/28 04:47:29;;;;;;;0.73;0.20;;;13.70;73.50;;;;;;6248004;22;20069;-74
2022/08/28 04:49:55;;;;;;;0.52;0.30;;;13.70;73.60;;;;;;6275666;22;20014;-73
2022/08/28 04:52:21;;;;;;;0.20;0.20;;;13.70;73.70;;;;;;6274877;22;20008;-74
2022/08/28 04:54:48;;;;;;;0.30;0.30;;;13.70;73.70;;;;;;6275550;22;20015;-74
2022/08/28 04:57:14;;;;;;;0.40;0.40;;;13.70;73.70;;;;;;6248585;22;20449;-73
2022/08/28 04:59:43;;;;;;;0.40;0.40;;;13.70;73.70;;;;;;6274854;22;20014;-73
2022/08/28 05:02:08;;;;;;;0.60;0.43;;;13.70;73.60;;;;;;6249001;22;20008;-74
2022/08/28 05:04:34;;;;;;;0.47;0.40;;;13.70;73.70;;;;;;6248694;22;20114;-73
2022/08/28 05:07:00;;;;;;;1.35;0.30;;;13.70;73.70;;;;;;6275206;22;20007;-73
2022/08/28 05:09:26;;;;;;;0.80;0.30;;;13.70;73.70;;;;;;6275624;22;19996;-73
2022/08/28 05:11:52;;;;;;;0.57;0.40;;;13.70;73.60;;;;;;6275300;22;20026;-74
2022/08/28 05:14:20;;;;;;;0.70;0.40;;;13.80;73.70;;;;;;6222587;22;20035;-74
2022/08/28 05:16:49;;;;;;;0.35;0.30;;;13.80;73.70;;;;;;6219730;22;20317;-74
2022/08/28 05:19:16;;;;;;;0.95;0.50;;;13.80;73.60;;;;;;6275353;22;20007;-73
2022/08/28 05:21:42;;;;;;;2.03;0.50;;;13.80;73.70;;;;;;6247463;22;20424;-73
2022/08/28 05:24:08;;;;;;;1.20;0.45;;;13.80;73.70;;;;;;6248268;22;20447;-74
2022/08/28 05:26:36;;;;;;;0.70;0.40;;;13.90;73.70;;;;;;6247434;22;20007;-73
2022/08/28 05:29:02;;;;;;;0.40;0.35;;;13.90;73.70;;;;;;6247337;22;20007;-73
2022/08/28 05:31:29;;;;;;;0.65;0.40;;;13.90;73.70;;;;;;6247798;22;20339;-73
2022/08/28 05:33:56;;;;;;;0.52;0.30;;;13.90;73.60;;;;;;6242410;22;20008;-74
2022/08/28 05:36:23;;;;;;;1.05;0.28;;;14.00;73.70;;;;;;6274781;22;20011;-73
2022/08/28 05:38:50;;;;;;;0.73;0.40;;;14.00;73.50;;;;;;6274634;22;20019;-73
2022/08/28 05:41:19;;;;;;;0.52;0.38;;;14.00;73.50;;;;;;6275302;22;20008;-74
2022/08/28 05:43:45;;;;;;;1.25;0.50;;;14.10;73.50;;;;;;6245790;22;20015;-73
2022/08/28 05:46:11;;;;;;;0.60;0.40;;;14.20;73.40;;;;;;6274705;22;20007;-73
2022/08/28 05:48:38;;;;;;;0.68;0.45;;;14.30;73.50;;;;;;6247638;22;20324;-73
2022/08/28 05:51:06;;;;;;;0.63;0.40;;;14.30;73.40;;;;;;6247448;22;20011;-73
2022/08/28 05:53:36;;;;;;;0.90;0.50;;;14.30;73.30;;;;;;6274731;22;20012;-73
2022/08/28 05:56:03;;;;;;;0.38;0.30;;;14.30;73.20;;;;;;6274685;22;20004;-73
2022/08/28 05:58:30;;;;;;;0.40;0.35;;;14.40;73.20;;;;;;6274739;22;20328;-73
2022/08/28 06:01:08;;;;;;;0.50;0.47;;;14.40;73.10;;;;;;6277673;22;20430;-74
2022/08/28 06:03:36;;;;;;;1.20;0.40;;;14.50;73.10;;;;;;6278378;22;20364;-73
2022/08/28 06:06:03;;;;;;;0.43;0.35;;;14.50;73.60;;;;;;6250514;22;20004;-73
2022/08/28 06:08:30;;;;;;;0.80;0.60;;;14.70;73.00;;;;;;6277929;22;20439;-73
2022/08/28 06:10:56;;;;;;;1.05;0.60;;;14.70;72.90;;;;;;6277505;22;19999;-73
2022/08/28 06:13:22;;;;;;;0.70;0.70;;;14.70;72.90;;;;;;6277287;22;20510;-73
2022/08/28 06:15:48;;;;;;;1.23;0.52;;;14.80;72.80;;;;;;6278232;22;20057;-73
2022/08/28 06:18:15;;;;;;;0.55;0.35;;;14.80;72.80;;;;;;6277814;22;20012;-74
2022/08/28 06:20:43;;;;;;;0.80;0.30;;;14.90;72.80;;;;;;6225250;22;20027;-74
2022/08/28 06:23:11;;;;;;;0.65;0.40;;;14.90;72.60;;;;;;6251037;22;20011;-74
2022/08/28 06:25:40;;;;;;;0.40;0.40;;;15.00;72.60;;;;;;6278394;22;20084;-74
2022/08/28 06:28:06;;;;;;;0.65;0.40;;;15.00;72.50;;;;;;6277906;22;20014;-74
2022/08/28 06:30:35;;;;;;;0.93;0.50;;;15.10;72.50;;;;;;6277841;22;20057;-74
2022/08/28 06:33:02;;;;;;;0.90;0.40;;;15.10;72.50;;;;;;6277956;22;20432;-74
2022/08/28 06:35:30;;;;;;;1.20;0.50;;;15.20;72.40;;;;;;6277672;22;20012;-74
2022/08/28 06:37:57;;;;;;;0.85;0.50;;;15.20;72.30;;;;;;6251129;22;20086;-74
2022/08/28 06:40:23;;;;;;;0.30;0.30;;;15.30;72.30;;;;;;6251543;22;20063;-74
2022/08/28 06:42:48;;;;;;;0.57;0.30;;;15.30;72.20;;;;;;6250850;22;20042;-74
2022/08/28 06:45:14;;;;;;;1.52;0.40;;;15.40;72.20;;;;;;6277606;22;20145;-74
2022/08/28 06:47:40;;;;;;;0.50;0.50;;;15.50;72.20;;;;;;6250265;22;20073;-74
2022/08/28 06:50:07;;;;;;;0.88;0.57;;;15.50;72.10;;;;;;6277809;22;19996;-74
2022/08/28 06:52:32;;;;;;;1.20;0.40;;;15.60;72.10;;;;;;6251014;22;20049;-74
2022/08/28 06:54:58;;;;;;;0.80;0.40;;;15.60;72.00;;;;;;6277283;22;20011;-74
2022/08/28 06:57:25;;;;;;;0.52;0.38;;;15.70;72.00;;;;;;6250797;22;20378;-75
2022/08/28 06:59:55;;;;;;;0.85;0.50;;;15.80;71.90;;;;;;6250438;22;20000;-74
2022/08/28 07:02:21;;;;;;;0.30;0.30;;;15.80;71.70;;;;;;6251186;22;20015;-74
2022/08/28 07:04:53;;;;;;;0.73;0.40;;;15.90;71.60;;;;;;6277102;22;20008;-74
2022/08/28 07:07:20;;;;;;;1.23;0.40;;;16.00;71.60;;;;;;6277640;22;20327;-74
2022/08/28 07:09:46;;;;;;;0.20;0.20;;;16.00;71.50;;;;;;6277324;22;20015;-74
2022/08/28 07:12:14;;;;;;;0.40;0.40;;;16.10;71.40;;;;;;6275028;22;20046;-74
2022/08/28 07:14:40;;;;;;;1.77;0.50;;;16.10;71.20;;;;;;6275866;22;20331;-74
2022/08/28 07:17:06;;;;;;;0.68;0.35;;;16.20;71.20;;;;;;6248778;22;20144;-74
2022/08/28 07:19:32;;;;;;;0.30;0.30;;;16.20;71.10;;;;;;6248276;22;20035;-74
2022/08/28 07:21:58;;;;;;;0.40;0.40;;;16.30;71.00;;;;;;6275942;22;20062;-74
2022/08/28 07:24:24;;;;;;;1.27;0.50;;;16.30;71.00;;;;;;6275807;22;20011;-74
2022/08/28 07:26:51;;;;;;;0.40;0.30;;;16.40;70.90;;;;;;6248554;22;20027;-74
2022/08/28 07:29:18;;;;;;;0.85;0.40;;;16.50;70.90;;;;;;6248588;22;20479;-74
2022/08/28 07:31:46;;;;;;;0.55;0.45;;;16.50;70.70;;;;;;6275372;22;20008;-74
2022/08/28 07:34:13;;;;;;;1.20;0.55;;;16.50;70.60;;;;;;6275718;22;20447;-74
2022/08/28 07:36:39;;;;;;;0.38;0.35;;;16.60;70.60;;;;;;6275798;22;20012;-74
2022/08/28 07:39:07;;;;;;;0.98;0.50;;;16.70;70.50;;;;;;6272274;22;20000;-75
2022/08/28 07:41:36;;;;;;;0.63;0.40;;;16.70;70.30;;;;;;6275339;22;20011;-74
2022/08/28 07:46:38;;;;;;;0.95;0.30;;;16.90;70.10;;;;;;6275507;22;20008;-74
2022/08/28 07:49:05;;;;;;;0.68;0.30;;;17.00;70.00;;;;;;6276132;22;20004;-74
2022/08/28 07:51:31;;;;;;;0.32;0.32;;;17.00;69.80;;;;;;6248349;22;20004;-75
2022/08/28 07:53:57;;;;;;;0.40;0.40;;;17.10;69.70;;;;;;6275797;22;20053;-74
2022/08/28 07:56:24;;;;;;;0.65;0.40;;;17.30;69.60;;;;;;6275122;22;20015;-75
2022/08/28 07:58:50;;;;;;;0.98;0.50;;;17.40;69.30;;;;;;6275052;22;20020;-74
2022/08/28 08:01:16;;;;;;;1.67;0.43;;;17.60;69.10;;;;;;6219489;22;20450;-74
2022/08/28 08:03:43;;;;;;;0.32;0.32;;;17.70;68.80;;;;;;6248486;22;20016;-74
2022/08/28 08:06:09;;;;;;;0.45;0.40;;;17.90;68.40;;;;;;6275459;22;20003;-74
2022/08/28 08:08:36;;;;;;;0.43;0.43;;;18.00;68.10;;;;;;6275529;22;20012;-74
2022/08/28 08:11:05;;;;;;;2.35;0.50;;;18.10;67.80;;;;;;6247793;22;20460;-74
2022/08/28 08:13:33;;;;;;;1.13;0.50;;;18.30;67.60;;;;;;6275791;22;20015;-74
2022/08/28 08:16:03;;;;;;;1.13;0.50;;;18.50;67.30;;;;;;6246325;22;20063;-74
2022/08/28 08:18:29;;;;;;;1.00;0.52;;;18.60;66.90;;;;;;6248185;22;20018;-74
2022/08/28 08:20:55;;;;;;;0.40;0.40;;;18.70;66.60;;;;;;6274764;22;20039;-75
2022/08/28 08:23:20;;;;;;;0.50;0.50;;;19.00;66.40;;;;;;6222479;22;20015;-74
2022/08/28 08:25:58;;;;;;;0.63;0.50;;;19.20;66.10;;;;;;6275660;22;20298;-75
2022/08/28 08:28:24;;;;;;;1.50;0.50;;;19.40;65.80;;;;;;6275826;22;20015;-74
2022/08/28 08:31:00;;;;;;;0.75;0.50;;;19.50;65.40;;;;;;6275146;22;20011;-75
2022/08/28 08:33:26;;;;;;;1.00;0.50;;;19.80;65.20;;;;;;6275048;22;20439;-75
2022/08/28 08:35:52;;;;;;;0.50;0.50;;;19.90;65.00;;;;;;6247177;22;20016;-75
2022/08/28 08:38:18;;;;;;;0.85;0.35;;;20.00;64.80;;;;;;6275124;22;20007;-75
2022/08/28 08:40:44;;;;;;;1.67;0.38;;;20.10;65.30;;;;;;6248008;22;20022;-75
2022/08/28 08:43:12;;;;;;;1.35;0.65;;;20.20;64.60;;;;;;6275034;22;20008;-75
2022/08/28 08:45:41;;;;;;;0.60;0.38;;;20.30;65.00;;;;;;6249220;22;20039;-75
2022/08/28 08:48:12;;;;;;;0.98;0.60;;;20.40;64.40;;;;;;6275461;22;20797;-75
2022/08/28 08:50:40;;;;;;;;;;;20.50;64.20;;;;;;6275885;22;20022;-74
2022/08/28 08:53:20;;;;;;;0.55;0.47;;;20.50;64.20;;;;;;6274922;22;20316;-75
2022/08/28 08:55:52;;;;;;;0.75;0.57;;;20.60;64.10;;;;;;6275722;22;20041;-74
2022/08/28 08:58:37;;;;;;;0.90;0.50;;;20.70;64.30;;;;;;6250153;22;20018;-74
2022/08/28 09:01:16;;;;;;;1.10;0.50;;;20.80;64.00;;;;;;6275425;22;20014;-74
2022/08/28 09:03:52;;;;;;;2.13;0.55;;;20.80;63.90;;;;;;6274541;22;20012;-74
2022/08/28 09:06:25;;;;;;;1.48;0.50;;;21.00;63.60;;;;;;6245623;22;20006;-74
2022/08/28 09:08:58;;;;;;;0.40;0.40;;;21.20;63.30;;;;;;6275046;22;20336;-73
2022/08/28 09:11:57;;;;;;;0.60;0.50;;;21.20;63.20;;;;;;6246888;22;20019;-74
2022/08/28 09:14:35;;;;;;;0.50;0.40;;;21.30;63.10;;;;;;6274791;22;20011;-74
2022/08/28 09:17:02;;;;;;;0.40;0.40;;;21.30;63.00;;;;;;6275100;22;20031;-73
2022/08/28 09:19:29;;;;;;;0.93;0.50;;;21.50;63.00;;;;;;6275352;22;20014;-73
2022/08/28 09:21:55;;;;;;;0.38;0.30;;;21.50;62.70;;;;;;6275405;22;20048;-74
2022/08/28 09:24:27;;;;;;;1.13;0.50;;;21.60;62.60;;;;;;6248457;22;20381;-74
2022/08/28 09:27:00;;;;;;;1.10;0.60;;;21.60;62.50;;;;;;6274886;22;20030;-74
2022/08/28 09:29:31;;;;;;;0.38;0.32;;;21.50;62.50;;;;;;6222451;22;19999;-74
2022/08/28 09:31:57;;;;;;;;;;;21.50;62.60;;;;;;6275177;22;20018;-74
2022/08/28 09:34:30;;;;;;;0.30;0.30;;;21.50;62.90;;;;;;6274048;22;20029;-74
2022/08/28 09:36:58;;;;;;;0.70;0.40;;;21.40;62.90;;;;;;6275369;22;20328;-74
2022/08/28 09:39:34;;;;;;;0.32;0.32;;;21.40;62.80;;;;;;6274557;22;19999;-74
2022/08/28 09:45:20;;;;;;;1.25;0.40;;;21.40;62.90;;;;;;6274836;22;20016;-74
2022/08/28 09:47:50;;;;;;;0.93;0.43;;;21.50;62.70;;;;;;6248291;22;20007;-74
2022/08/28 09:50:34;;;;;;;0.98;0.40;;;21.50;62.50;;;;;;6248691;22;20817;-74
2022/08/28 09:53:19;;;;;;;1.08;0.45;;;21.50;62.30;;;;;;6274884;22;20082;-74
2022/08/28 09:56:05;;;;;;;0.82;0.60;;;21.50;62.20;;;;;;6274568;22;20463;-74
2022/08/28 09:58:48;;;;;;;0.50;0.50;;;21.70;62.00;;;;;;6250992;22;20451;-74
2022/08/28 10:01:35;;;;;;;0.50;0.50;;;21.80;61.60;;;;;;6246538;22;20130;-74
2022/08/28 10:04:36;;;;;;;0.40;0.40;;;21.80;61.20;;;;;;6274333;22;20019;-74
2022/08/28 10:07:14;;;;;;;0.52;0.40;;;21.90;61.00;;;;;;6252002;22;20007;-73
2022/08/28 10:10:08;;;;;;;0.47;0.40;;;22.10;61.00;;;;;;6247503;22;20000;-74
2022/08/28 10:13:06;;;;;;;1.25;0.60;;;22.10;60.60;;;;;;6274842;22;20098;-73
2022/08/28 10:16:00;;;;;;;0.52;0.40;;;22.30;60.20;;;;;;6254827;22;20031;-74
2022/08/28 10:18:42;;;;;;;0.70;0.52;;;22.40;59.90;;;;;;6252531;22;20019;-73
2022/08/28 10:21:27;;;;;;;0.45;0.38;;;22.50;59.70;;;;;;6274252;22;20008;-74
2022/08/28 10:24:10;;;;;;;0.60;0.52;;;22.60;59.50;;;;;;6247144;22;20011;-74
2022/08/28 10:26:55;;;;;;;0.47;0.40;;;22.50;59.50;;;;;;6249227;22;20357;-74
2022/08/28 10:29:48;;;;;;;1.67;0.50;;;22.40;59.70;;;;;;6274561;22;20031;-74
2022/08/28 10:32:47;;;;;;;0.57;0.50;;;22.30;59.70;;;;;;6274089;22;20007;-74
2022/08/28 10:35:18;;;;;;;0.50;0.40;;;22.20;59.80;;;;;;6274306;22;20440;-74
2022/08/28 10:38:16;;;;;;;0.63;0.45;;;22.20;60.00;;;;;;6274838;22;20007;-74
2022/08/28 10:41:10;;;;;;;0.32;0.32;;;22.20;59.90;;;;;;6247363;22;20053;-74
2022/08/28 10:43:51;;;;;;;0.30;0.30;;;22.20;59.70;;;;;;6245992;22;20077;-74
2022/08/28 10:46:25;;;;;;;0.73;0.40;;;22.30;59.50;;;;;;6275049;22;20054;-74
2022/08/28 10:48:58;;;;;;;1.90;0.43;;;22.40;59.50;;;;;;6250052;22;20007;-73
2022/08/28 10:51:42;;;;;;;0.50;0.40;;;22.40;59.30;;;;;;6275806;22;20058;-74
2022/08/28 10:54:24;;;;;;;0.45;0.30;;;22.30;59.30;;;;;;6276275;22;20023;-74
2022/08/28 10:56:58;;;;;;;0.93;0.50;;;22.30;59.30;;;;;;6275553;22;20015;-74
2022/08/28 10:59:28;;;;;;;0.52;0.47;;;22.30;59.10;;;;;;6276211;22;20012;-74
2022/08/28 11:01:55;;;;;;;0.30;0.30;;;22.40;58.90;;;;;;6275830;22;20061;-74
2022/08/28 11:04:23;;;;;;;0.70;0.40;;;22.40;58.80;;;;;;6248963;22;20481;-75
2022/08/28 11:06:56;;;;;;;0.38;0.30;;;22.40;58.90;;;;;;6275494;22;20000;-74
2022/08/28 11:09:33;;;;;;;0.50;0.40;;;22.40;58.80;;;;;;6249129;22;20036;-74
2022/08/28 11:12:08;;;;;;;0.40;0.40;;;22.40;58.80;;;;;;6276284;22;20131;-75
2022/08/28 11:14:39;;;;;;;0.70;0.30;;;22.40;58.90;;;;;;6275450;22;20008;-74
2022/08/28 11:17:06;;;;;;;;;;;22.50;58.70;;;;;;6249208;22;20004;-74
2022/08/28 11:19:47;;;;;;;0.50;0.50;;;22.70;58.40;;;;;;6275930;22;19952;-74
2022/08/28 11:22:19;;;;;;;0.30;0.30;;;22.80;57.90;;;;;;6248380;22;20012;-74
2022/08/28 11:24:52;;;;;;;1.23;0.55;;;22.80;57.80;;;;;;6249464;22;20008;-74
2022/08/28 11:27:26;;;;;;;0.47;0.40;;;22.70;57.80;;;;;;6275988;22;20008;-74
2022/08/28 11:30:22;;;;;;;0.45;0.40;;;22.50;58.00;;;;;;6248301;22;20082;-74
2022/08/28 11:32:58;;;;;;;0.80;0.43;;;22.40;58.20;;;;;;6246221;22;20023;-74
2022/08/28 11:35:46;;;;;;;0.70;0.40;;;22.30;58.30;;;;;;6275227;22;20094;-74
2022/08/28 11:38:42;;;;;;;0.50;0.50;;;22.40;58.30;;;;;;6248319;22;20379;-74
2022/08/28 11:41:13;;;;;;;1.13;0.52;;;22.70;58.40;;;;;;6274966;22;20436;-74
2022/08/28 11:43:44;;;;;;;1.38;0.43;;;22.70;57.50;;;;;;6247379;22;20046;-74
2022/08/28 11:46:12;;;;;;;;;;;22.60;57.40;;;;;;6276053;22;20513;-74
2022/08/28 11:48:49;;;;;;;0.80;0.43;;;22.60;57.60;;;;;;6275503;22;19918;-74
2022/08/28 11:51:55;;;;;;;0.40;0.40;;;22.50;57.60;;;;;;6198100;22;20019;-74
2022/08/28 11:54:44;;;;;;;0.20;0.20;;;22.60;57.60;;;;;;6226936;22;20042;-74
2022/08/28 11:57:23;;;;;;;0.50;0.50;;;22.50;57.50;;;;;;6275009;22;20003;-74
2022/08/28 12:00:06;;;;;;;0.50;0.50;;;22.70;57.20;;;;;;6248924;22;20040;-74
2022/08/28 12:02:48;;;;;;;0.80;0.50;;;22.80;57.00;;;;;;6275300;22;20016;-74
2022/08/28 12:05:36;;;;;;;0.50;0.50;;;22.90;56.70;;;;;;6275003;22;20011;-74
2022/08/28 12:08:03;;;;;;;0.50;0.50;;;23.00;56.20;;;;;;6227702;22;20478;-73
2022/08/28 12:10:52;;;;;;;1.10;0.47;;;23.10;56.20;;;;;;6275224;22;20000;-74
2022/08/28 12:13:52;;;;;;;0.70;0.50;;;23.10;56.30;;;;;;6228032;22;20007;-74
2022/08/28 12:16:18;;;;;;;0.53;0.40;;;23.10;55.90;;;;;;6248280;22;20022;-74
2022/08/28 12:19:02;;;;;;;0.40;0.40;;;23.10;56.10;;;;;;6246987;22;20012;-73
2022/08/28 12:21:30;;;;;;;0.30;0.30;;;22.90;56.10;;;;;;6274724;22;20069;-74
2022/08/28 12:24:18;;;;;;;0.25;0.25;;;22.90;56.30;;;;;;6248257;22;20053;-74
2022/08/28 12:26:48;;;;;;;0.50;0.35;;;22.90;56.30;;;;;;6275030;22;20034;-74
2022/08/28 12:29:35;;;;;;;0.45;0.45;;;23.00;56.30;;;;;;6248322;22;20004;-74
2022/08/28 12:32:25;;;;;;;0.63;0.50;;;23.00;56.10;;;;;;6274794;22;20026;-74
2022/08/28 12:35:08;;;;;;;0.43;0.35;;;23.10;55.90;;;;;;6247906;22;20521;-74
2022/08/28 12:37:37;;;;;;;0.30;0.30;;;23.20;55.60;;;;;;6248756;22;20017;-74
2022/08/28 12:40:19;;;;;;;0.45;0.40;;;23.30;55.60;;;;;;6275364;22;20041;-74
2022/08/28 12:42:53;;;;;;;0.70;0.50;;;23.40;55.50;;;;;;6275006;22;20085;-74
2022/08/28 12:45:28;;;;;;;0.75;0.45;;;23.40;55.40;;;;;;6275520;22;20004;-75
2022/08/28 12:47:56;;;;;;;0.30;0.30;;;23.60;55.20;;;;;;6224354;22;20007;-74
2022/08/28 12:50:28;;;;;;;0.32;0.32;;;23.70;54.80;;;;;;6274892;22;20420;-74
2022/08/28 12:52:57;;;;;;;0.35;0.35;;;23.80;54.70;;;;;;6249723;22;20450;-74
2022/08/28 12:55:24;;;;;;;0.57;0.50;;;23.70;54.70;;;;;;6275069;22;20383;-74
2022/08/28 12:57:51;;;;;;;0.52;0.40;;;23.70;54.80;;;;;;6275554;22;20094;-73
2022/08/28 13:00:21;;;;;;;0.55;0.43;;;23.60;54.90;;;;;;6275684;22;20061;-74
2022/08/28 13:02:51;;;;;;;0.40;0.40;;;23.50;55.00;;;;;;6274730;22;20004;-74
2022/08/28 13:05:29;;;;;;;0.52;0.30;;;23.50;55.10;;;;;;6274516;22;20061;-74
2022/08/28 13:07:57;;;;;;;0.30;0.30;;;23.40;55.10;;;;;;6247573;22;20014;-74
2022/08/28 13:10:28;;;;;;;0.35;0.35;;;23.40;55.10;;;;;;6247385;22;20015;-74
2022/08/28 13:13:05;;;;;;;0.32;0.30;;;23.30;55.10;;;;;;6276002;22;20014;-74
2022/08/28 13:15:54;;;;;;;0.40;0.40;;;23.40;55.20;;;;;;6275691;22;20493;-73
2022/08/28 13:18:37;;;;;;;0.30;0.30;;;23.50;55.10;;;;;;6274880;22;20008;-74